createdAt,value
2023-02-16T00:01:56.521Z,73.40
2023-02-16T00:04:29.060Z,75.27
2023-02-16T00:06:57.578Z,78.97
2023-02-16T00:09:25.469Z,79.62
2023-02-16T00:12:12.070Z,79.85
2023-02-16T00:14:40.500Z,79.21
2023-02-16T00:17:10.651Z,78.79
2023-02-16T00:19:39.238Z,75.57
2023-02-16T00:22:07.502Z,76.60
2023-02-16T00:24:36.463Z,78.89
2023-02-16T00:27:03.718Z,79.28
2023-02-16T00:29:37.754Z,80.47
2023-02-16T00:32:05.989Z,80.01
2023-02-16T00:34:38.799Z,81.20
2023-02-16T00:37:09.519Z,81.16
2023-02-16T00:39:37.441Z,81.01
2023-02-16T00:42:10.825Z,79.97
2023-02-16T00:44:48.149Z,80.62
2023-02-16T00:47:30.983Z,79.72
2023-02-16T00:49:58.360Z,78.64
2023-02-16T00:52:28.342Z,78.63
2023-02-16T00:54:56.981Z,77.23
2023-02-16T00:57:24.187Z,76.31
2023-02-16T00:59:53.996Z,75.78
2023-02-16T01:02:21.223Z,75.46
2023-02-16T01:57:06.077Z,82.85
2023-02-16T02:00:01.289Z,83.15
2023-02-16T02:02:34.166Z,84.76
2023-02-16T02:05:25.839Z,84.50
2023-02-16T02:08:12.775Z,84.07
2023-02-16T02:10:52.293Z,83.07
2023-02-16T02:13:34.478Z,82.65
2023-02-16T02:16:02.342Z,81.69
2023-02-16T02:18:30.466Z,80.91
2023-02-16T02:21:28.546Z,80.88
2023-02-16T02:24:23.260Z,79.66
2023-02-16T02:27:05.660Z,79.66
2023-02-16T02:29:44.947Z,77.66
2023-02-16T02:32:50.096Z,77.62
2023-02-16T02:35:33.985Z,79.15
2023-02-16T02:38:01.008Z,83.08
2023-02-16T02:40:27.633Z,85.73
2023-02-16T02:43:13.254Z,85.95
2023-02-16T02:46:03.890Z,85.56
2023-02-16T02:48:31.881Z,85.97
2023-02-16T02:51:33.990Z,86.61
2023-02-16T02:54:32.813Z,86.18
2023-02-16T02:58:01.748Z,84.43
2023-02-16T03:00:41.957Z,84.67
2023-02-16T03:03:30.559Z,85.03
2023-02-16T03:06:11.772Z,82.85
2023-02-16T03:08:41.855Z,84.11
2023-02-16T03:11:34.438Z,83.44
2023-02-16T03:14:04.255Z,79.88
2023-02-16T03:16:39.865Z,80.33
2023-02-16T03:19:25.499Z,81.22
2023-02-16T03:22:10.742Z,85.22
2023-02-16T03:24:57.533Z,86.58
2023-02-16T03:27:50.629Z,86.83
2023-02-16T03:30:18.715Z,87.08
2023-02-16T03:32:46.640Z,86.94
2023-02-16T03:35:13.341Z,87.54
2023-02-16T03:37:44.555Z,88.36
2023-02-16T03:40:29.419Z,88.44
2023-02-16T03:42:58.021Z,88.29
2023-02-16T03:45:25.682Z,87.26
2023-02-16T03:47:54.220Z,83.81
2023-02-16T03:50:22.720Z,84.45
2023-02-16T03:52:50.604Z,85.94
2023-02-16T03:55:18.215Z,86.75
2023-02-16T03:57:46.442Z,86.30
2023-02-16T04:00:16.177Z,85.23
2023-02-16T04:02:43.769Z,83.69
2023-02-16T04:05:12.509Z,83.46
2023-02-16T04:07:43.243Z,83.71
2023-02-16T04:10:11.571Z,84.89
2023-02-16T04:12:39.595Z,87.34
2023-02-16T04:15:13.862Z,89.65
2023-02-16T04:17:41.941Z,89.76
2023-02-16T04:20:12.707Z,88.39
2023-02-16T04:22:40.732Z,87.16
2023-02-16T04:25:11.018Z,86.22
2023-02-16T04:27:41.417Z,86.29
2023-02-16T04:30:12.796Z,86.55
2023-02-16T04:32:40.938Z,85.89
2023-02-16T04:35:08.620Z,84.57
2023-02-16T04:37:36.781Z,82.84
2023-02-16T04:40:06.413Z,83.08
2023-02-16T04:42:34.249Z,83.56
2023-02-16T04:45:02.069Z,84.85
2023-02-16T04:47:29.987Z,84.89
2023-02-16T04:49:58.061Z,85.07
2023-02-16T04:52:26.060Z,85.61
2023-02-16T04:54:54.197Z,85.71
2023-02-16T04:57:24.281Z,85.50
2023-02-16T04:59:53.323Z,84.85
2023-02-16T05:02:21.646Z,84.12
2023-02-16T05:04:49.837Z,84.75
2023-02-16T05:07:18.106Z,84.29
2023-02-16T05:09:47.231Z,84.17
2023-02-16T05:12:34.041Z,84.36
2023-02-16T05:15:02.338Z,84.71
2023-02-16T05:17:36.206Z,84.64
2023-02-16T05:20:04.703Z,85.12
2023-02-16T05:22:34.638Z,85.95
2023-02-16T05:25:02.884Z,85.20
2023-02-16T05:27:31.101Z,84.27
2023-02-16T05:30:00.706Z,84.03
2023-02-16T05:32:29.093Z,84.38
2023-02-16T05:34:57.549Z,85.88
2023-02-16T05:37:28.544Z,86.55
2023-02-16T05:39:56.928Z,87.45
2023-02-16T05:42:25.725Z,86.77
2023-02-16T05:44:53.626Z,86.66
2023-02-16T05:47:23.024Z,87.18
2023-02-16T05:49:51.001Z,87.53
2023-02-16T05:52:19.998Z,87.80
2023-02-16T05:54:48.127Z,88.28
2023-02-16T05:57:16.962Z,87.58
2023-02-16T05:59:45.205Z,86.75
2023-02-16T06:02:14.093Z,87.63
2023-02-16T06:04:42.347Z,87.01
2023-02-16T06:07:10.981Z,87.73
2023-02-16T06:09:40.056Z,89.03
2023-02-16T06:12:08.820Z,89.41
2023-02-16T06:14:38.227Z,89.12
2023-02-16T06:17:06.900Z,88.65
2023-02-16T06:19:35.095Z,89.33
2023-02-16T06:22:03.323Z,90.91
2023-02-16T06:24:32.268Z,92.63
2023-02-16T06:27:00.564Z,94.47
2023-02-16T06:29:29.435Z,95.19
2023-02-16T06:31:57.801Z,95.09
2023-02-16T06:34:26.253Z,94.59
2023-02-16T06:36:53.812Z,93.91
2023-02-16T06:39:21.906Z,93.92
2023-02-16T06:41:51.054Z,93.65
2023-02-16T06:44:19.367Z,93.37
2023-02-16T06:46:47.922Z,93.09
2023-02-16T06:49:21.063Z,90.34
2023-02-16T06:51:48.873Z,90.22
2023-02-16T06:54:16.300Z,90.52
2023-02-16T06:56:44.312Z,90.82
2023-02-16T06:59:15.110Z,90.97
2023-02-16T07:01:45.228Z,91.64
2023-02-16T07:04:13.474Z,91.18
2023-02-16T07:06:41.426Z,89.65
2023-02-16T07:09:11.652Z,90.12
2023-02-16T07:11:41.272Z,88.94
2023-02-16T07:14:09.550Z,89.56
2023-02-16T07:16:42.099Z,90.67
2023-02-16T07:19:10.507Z,91.14
2023-02-16T07:21:38.140Z,90.75
2023-02-16T07:24:06.551Z,90.86
2023-02-16T07:26:34.381Z,90.76
2023-02-16T07:29:03.020Z,90.53
2023-02-16T07:31:30.963Z,90.25
2023-02-16T07:33:59.062Z,90.41
2023-02-16T07:36:26.744Z,89.51
2023-02-16T07:38:55.250Z,89.03
2023-02-16T07:41:24.805Z,88.94
2023-02-16T07:43:53.726Z,88.79
2023-02-16T07:46:22.298Z,88.68
2023-02-16T07:48:51.417Z,88.10
2023-02-16T07:51:45.667Z,86.95
2023-02-16T07:54:14.459Z,86.35
2023-02-16T07:56:43.470Z,86.06
2023-02-16T07:59:11.886Z,86.07
2023-02-16T08:01:41.794Z,86.44
2023-02-16T08:04:14.229Z,85.81
2023-02-16T08:06:48.784Z,85.54
2023-02-16T08:09:17.536Z,85.66
2023-02-16T08:11:46.711Z,85.95
2023-02-16T08:14:16.668Z,84.42
2023-02-16T08:16:44.849Z,82.01
2023-02-16T08:19:13.840Z,79.37
2023-02-16T08:21:42.220Z,77.13
2023-02-16T08:24:14.106Z,76.60
2023-02-16T08:26:43.223Z,75.77
2023-02-16T08:29:12.784Z,76.67
2023-02-16T08:31:41.669Z,76.35
2023-02-16T08:34:09.689Z,76.74
2023-02-16T08:36:38.643Z,77.78
2023-02-16T08:39:08.565Z,77.62
2023-02-16T08:41:37.114Z,76.11
2023-02-16T08:44:06.965Z,76.25
2023-02-16T08:46:34.957Z,76.75
2023-02-16T08:49:03.258Z,75.01
2023-02-16T08:51:33.132Z,74.88
2023-02-16T08:54:00.329Z,75.90
2023-02-16T08:56:29.831Z,75.76
2023-02-16T08:58:57.745Z,76.00
2023-02-16T09:01:25.552Z,75.95
2023-02-16T09:03:53.846Z,75.40
2023-02-16T09:06:22.572Z,74.70
2023-02-16T09:08:54.445Z,73.64
2023-02-16T09:11:22.075Z,73.05
2023-02-16T09:13:50.794Z,72.52
2023-02-16T09:16:20.660Z,71.96
2023-02-16T09:18:48.641Z,72.66
2023-02-16T09:21:18.479Z,71.48
2023-02-16T09:23:48.161Z,71.55
2023-02-16T09:26:16.686Z,71.98
2023-02-16T09:28:43.609Z,71.07
2023-02-16T09:31:10.502Z,71.21
2023-02-16T09:33:38.461Z,69.86
2023-02-16T09:36:09.262Z,70.44
2023-02-16T09:38:36.817Z,70.83
2023-02-16T09:41:27.560Z,70.59
2023-02-16T09:44:17.814Z,70.05
2023-02-16T09:46:49.800Z,70.13
2023-02-16T09:49:29.201Z,70.54
2023-02-16T09:52:23.936Z,69.89
2023-02-16T09:55:00.704Z,68.90
2023-02-16T09:57:49.142Z,69.37
2023-02-16T10:00:34.623Z,68.31
2023-02-16T10:03:23.945Z,68.23
2023-02-16T10:06:22.182Z,69.03
2023-02-16T10:08:57.245Z,68.32
2023-02-16T10:11:38.828Z,67.07
2023-02-16T10:14:08.997Z,66.64
2023-02-16T10:16:40.175Z,67.09
2023-02-16T10:19:36.442Z,66.93
2023-02-16T10:22:04.326Z,65.75
2023-02-16T10:24:32.334Z,65.02
2023-02-16T10:27:08.363Z,65.75
2023-02-16T10:29:36.322Z,64.16
2023-02-16T10:32:29.281Z,64.82
2023-02-16T10:35:20.717Z,63.55
2023-02-16T10:38:10.887Z,63.43
2023-02-16T10:41:01.578Z,63.74
2023-02-16T10:43:40.034Z,63.43
2023-02-16T10:46:07.755Z,61.93
2023-02-16T10:48:35.620Z,61.51
2023-02-16T10:51:06.974Z,60.79
2023-02-16T10:53:39.715Z,60.38
2023-02-16T10:56:32.890Z,59.92
2023-02-16T10:59:00.262Z,59.26
2023-02-16T11:01:54.104Z,56.70
2023-02-16T11:04:36.081Z,56.90
2023-02-16T11:07:06.121Z,54.65
2023-02-16T11:09:33.810Z,56.04
2023-02-16T11:12:00.623Z,55.91
2023-02-16T11:14:30.509Z,57.12
2023-02-16T11:17:13.718Z,56.83
2023-02-16T11:19:48.361Z,55.85
2023-02-16T11:22:32.488Z,55.41
2023-02-16T11:25:18.456Z,54.51
2023-02-16T11:28:21.215Z,54.37
2023-02-16T11:30:48.732Z,53.37
2023-02-16T11:33:25.162Z,53.02
2023-02-16T11:35:52.873Z,52.90
2023-02-16T11:38:27.060Z,52.92
2023-02-16T11:40:54.028Z,52.59
2023-02-16T11:43:20.818Z,52.39
2023-02-16T11:46:02.114Z,50.71
2023-02-16T11:48:31.535Z,50.45
2023-02-16T11:51:06.593Z,49.61
2023-02-16T11:53:35.424Z,48.98
2023-02-16T11:56:28.411Z,49.21
2023-02-16T11:59:30.513Z,48.53
2023-02-16T12:02:03.425Z,48.39
2023-02-16T12:05:01.086Z,48.20
2023-02-16T12:07:40.458Z,48.14
2023-02-16T12:10:32.154Z,47.45
2023-02-16T12:13:08.669Z,47.34
2023-02-16T12:15:51.204Z,46.41
2023-02-16T12:18:34.425Z,46.47
2023-02-16T12:21:37.353Z,45.63
2023-02-16T12:24:32.801Z,43.93
2023-02-16T12:27:04.422Z,43.39
2023-02-16T12:30:34.116Z,42.74
2023-02-16T12:33:34.937Z,42.65
2023-02-16T12:36:20.206Z,41.18
2023-02-16T12:39:16.657Z,41.50
2023-02-16T12:42:34.679Z,40.87
2023-02-16T12:45:09.404Z,40.67
2023-02-16T12:47:38.620Z,40.70
2023-02-16T12:50:08.796Z,40.18
2023-02-16T12:53:05.324Z,39.92
2023-02-16T12:55:52.451Z,39.61
2023-02-16T12:58:33.911Z,39.72
2023-02-16T13:01:07.530Z,39.14
2023-02-16T13:03:40.650Z,39.00
2023-02-16T13:06:40.337Z,37.80
2023-02-16T13:09:54.968Z,37.64
2023-02-16T13:12:39.232Z,37.53
2023-02-16T13:15:20.734Z,38.17
2023-02-16T13:17:52.406Z,38.50
2023-02-16T13:20:21.617Z,37.61
2023-02-16T13:22:55.122Z,37.26
2023-02-16T13:25:28.096Z,38.24
2023-02-16T13:28:03.951Z,37.61
2023-02-16T13:30:48.711Z,36.96
2023-02-16T13:33:24.661Z,37.39
2023-02-16T13:36:19.137Z,36.94
2023-02-16T13:39:03.443Z,36.42
2023-02-16T13:41:34.322Z,36.90
2023-02-16T13:44:09.776Z,36.58
2023-02-16T13:46:42.537Z,35.46
2023-02-16T13:49:32.588Z,36.15
2023-02-16T13:51:59.552Z,36.31
2023-02-16T13:54:34.730Z,36.59
2023-02-16T13:57:06.192Z,36.72
2023-02-16T13:59:36.704Z,36.59
2023-02-16T14:02:05.052Z,36.09
2023-02-16T14:04:32.805Z,36.54
2023-02-16T14:07:07.362Z,36.08
2023-02-16T14:09:39.967Z,35.82
2023-02-16T14:12:12.586Z,36.37
2023-02-16T14:14:42.551Z,36.56
2023-02-16T14:17:14.923Z,37.21
2023-02-16T14:20:22.950Z,37.63
2023-02-16T14:22:50.445Z,38.02
2023-02-16T14:25:20.492Z,38.75
2023-02-16T14:27:52.484Z,38.97
2023-02-16T14:30:43.410Z,39.91
2023-02-16T14:33:13.306Z,40.77
2023-02-16T14:35:42.050Z,41.81
2023-02-16T14:38:20.889Z,42.42
2023-02-16T14:40:58.150Z,41.63
2023-02-16T14:43:31.451Z,41.32
2023-02-16T14:46:22.194Z,41.65
2023-02-16T14:48:55.069Z,41.37
2023-02-16T14:51:33.937Z,41.12
2023-02-16T14:54:37.747Z,41.46
2023-02-16T14:57:16.829Z,42.04
2023-02-16T14:59:57.823Z,42.16
2023-02-16T15:02:26.248Z,41.47
2023-02-16T15:04:54.411Z,40.76
2023-02-16T15:07:22.717Z,40.30
2023-02-16T15:09:57.450Z,40.28
2023-02-16T15:12:27.885Z,40.80
2023-02-16T15:14:59.798Z,40.91
2023-02-16T15:17:45.012Z,41.39
2023-02-16T15:20:58.737Z,41.74
2023-02-16T15:23:27.490Z,42.55
2023-02-16T15:26:16.820Z,42.73
2023-02-16T15:28:44.383Z,43.33
2023-02-16T15:31:21.794Z,44.07
2023-02-16T15:34:33.390Z,45.27
2023-02-16T15:37:23.557Z,45.47
2023-02-16T15:40:08.705Z,46.23
2023-02-16T15:42:38.315Z,47.62
2023-02-16T15:45:26.593Z,48.14
2023-02-16T15:47:54.437Z,48.73
2023-02-16T15:50:27.008Z,48.94
2023-02-16T15:52:55.002Z,49.37
2023-02-16T15:55:23.160Z,49.63
2023-02-16T15:57:51.332Z,49.40
2023-02-16T16:00:20.987Z,48.99
2023-02-16T16:02:54.006Z,49.20
2023-02-16T16:05:27.228Z,49.87
2023-02-16T16:07:55.137Z,49.96
2023-02-16T16:10:26.225Z,50.19
2023-02-16T16:12:57.946Z,51.00
2023-02-16T16:15:26.470Z,51.26
2023-02-16T16:17:54.789Z,52.53
2023-02-16T16:20:27.686Z,54.27
2023-02-16T16:23:17.753Z,55.81
2023-02-16T16:25:46.538Z,57.22
2023-02-16T16:28:29.091Z,58.51
2023-02-16T16:31:14.996Z,59.64
2023-02-16T16:34:07.350Z,60.67
2023-02-16T16:36:47.006Z,61.38
2023-02-16T16:39:17.194Z,62.47
2023-02-16T16:42:16.105Z,62.70
2023-02-16T16:44:45.648Z,63.79
2023-02-16T16:47:12.688Z,64.42
2023-02-16T16:49:55.410Z,65.52
2023-02-16T16:52:31.270Z,66.08
2023-02-16T16:54:59.856Z,66.70
2023-02-16T16:57:27.754Z,67.34
2023-02-16T16:59:56.487Z,67.86
2023-02-16T17:02:24.604Z,68.97
2023-02-16T17:04:52.094Z,69.49
2023-02-16T17:07:20.171Z,69.94
2023-02-16T17:09:48.218Z,70.47
2023-02-16T17:12:16.546Z,70.60
2023-02-16T17:14:44.572Z,70.71
2023-02-16T17:17:12.764Z,71.80
2023-02-16T17:19:42.453Z,71.43
2023-02-16T17:22:17.562Z,72.57
2023-02-16T17:24:48.490Z,73.02
2023-02-16T17:27:16.815Z,72.69
2023-02-16T17:29:46.717Z,72.96
2023-02-16T17:32:15.045Z,73.72
2023-02-16T17:34:42.891Z,74.49
2023-02-16T17:37:10.095Z,74.42
2023-02-16T17:39:38.070Z,74.95
2023-02-16T17:42:12.307Z,74.62
2023-02-16T17:44:40.037Z,75.39
2023-02-16T17:47:07.192Z,74.94
2023-02-16T17:49:35.252Z,76.26
2023-02-16T17:52:03.696Z,75.82
2023-02-16T17:54:31.976Z,76.36
2023-02-16T17:56:59.496Z,77.02
2023-02-16T17:59:29.303Z,77.79
2023-02-16T18:01:58.320Z,78.42
2023-02-16T18:04:26.510Z,78.27
2023-02-16T18:06:54.526Z,78.73
2023-02-16T18:09:24.494Z,78.76
2023-02-16T18:11:52.169Z,79.66
2023-02-16T18:14:19.852Z,80.30
2023-02-16T18:16:52.394Z,80.60
2023-02-16T18:19:21.137Z,81.54
2023-02-16T18:21:49.224Z,81.82
2023-02-16T18:24:17.075Z,81.99
2023-02-16T18:26:48.345Z,82.97
2023-02-16T18:29:17.816Z,83.76
2023-02-16T18:31:45.614Z,83.12
2023-02-16T18:34:13.840Z,83.45
2023-02-16T18:36:41.908Z,84.12
2023-02-16T18:39:10.722Z,84.43
2023-02-16T18:41:38.822Z,84.46
2023-02-16T18:44:11.937Z,85.02
2023-02-16T18:46:39.762Z,85.38
2023-02-16T18:49:07.597Z,86.15
2023-02-16T18:51:35.693Z,86.68
2023-02-16T18:54:03.900Z,86.89
2023-02-16T18:56:32.882Z,86.92
2023-02-16T18:59:01.369Z,86.37
2023-02-16T19:01:29.798Z,86.42
2023-02-16T19:04:00.397Z,87.15
2023-02-16T19:06:28.453Z,87.59
2023-02-16T19:08:58.410Z,88.38
2023-02-16T19:11:25.678Z,87.21
2023-02-16T19:13:54.021Z,88.66
2023-02-16T19:16:21.748Z,88.42
2023-02-16T19:18:50.466Z,88.66
2023-02-16T19:21:19.105Z,89.26
2023-02-16T19:23:46.812Z,89.83
2023-02-16T19:26:15.977Z,89.41
2023-02-16T19:28:45.520Z,89.94
2023-02-16T19:31:18.153Z,89.50
2023-02-16T19:33:45.929Z,89.68
2023-02-16T19:36:14.049Z,90.18
2023-02-16T19:38:42.336Z,89.72
2023-02-16T19:41:17.884Z,89.42
2023-02-16T19:43:45.006Z,89.66
2023-02-16T19:46:12.392Z,89.44
2023-02-16T19:48:40.291Z,89.88
2023-02-16T19:51:07.741Z,90.41
2023-02-16T19:53:36.103Z,90.83
2023-02-16T19:56:12.656Z,91.09
2023-02-16T19:58:40.791Z,88.98
2023-02-16T20:01:19.551Z,85.25
2023-02-16T20:03:47.290Z,85.36
2023-02-16T20:06:19.529Z,83.69
2023-02-16T20:08:46.906Z,84.37
2023-02-16T20:11:18.488Z,88.80
2023-02-16T20:13:46.543Z,90.14
2023-02-16T20:16:14.639Z,91.46
2023-02-16T20:18:42.409Z,87.51
2023-02-16T20:21:13.418Z,86.80
2023-02-16T20:23:41.100Z,86.57
2023-02-16T20:26:53.882Z,87.60
2023-02-16T20:29:21.433Z,90.79
2023-02-16T20:31:51.795Z,92.80
2023-02-16T20:34:20.066Z,93.51
2023-02-16T20:36:48.055Z,94.62
2023-02-16T20:39:15.796Z,94.98
2023-02-16T20:41:43.329Z,94.29
2023-02-16T20:44:11.970Z,94.59
2023-02-16T20:46:39.762Z,91.89
2023-02-16T20:49:09.248Z,90.47
2023-02-16T20:51:36.819Z,92.15
2023-02-16T20:54:05.100Z,88.72
2023-02-16T20:56:33.069Z,88.62
2023-02-16T20:59:04.263Z,89.23
2023-02-16T21:01:56.640Z,90.94
2023-02-16T21:04:25.468Z,92.65
2023-02-16T21:06:53.423Z,93.36
2023-02-16T21:09:21.659Z,95.16
2023-02-16T21:11:49.992Z,98.70
2023-02-16T21:14:17.775Z,98.84
2023-02-16T21:16:44.776Z,98.59
2023-02-16T21:19:22.510Z,97.52
2023-02-16T21:21:50.490Z,97.18
2023-02-16T21:24:18.978Z,97.01
2023-02-16T21:26:47.231Z,98.05
2023-02-16T21:29:14.899Z,98.44
2023-02-16T21:31:42.980Z,97.19
2023-02-16T21:34:11.470Z,95.76
2023-02-16T21:36:39.567Z,95.57
2023-02-16T21:39:07.647Z,95.41
2023-02-16T21:41:35.410Z,94.42
2023-02-16T21:44:05.243Z,94.49
2023-02-16T21:46:57.323Z,92.21
2023-02-16T21:49:25.498Z,92.60
2023-02-16T21:51:52.876Z,93.04
2023-02-16T21:54:40.581Z,93.26
2023-02-16T21:57:08.772Z,94.60
2023-02-16T21:59:36.952Z,94.64
2023-02-16T22:02:05.115Z,94.04
2023-02-16T22:04:33.093Z,93.67
2023-02-16T22:07:01.096Z,89.21
2023-02-16T22:09:29.112Z,89.80
2023-02-16T22:11:57.331Z,91.18
2023-02-16T22:14:25.376Z,85.54
2023-02-16T22:17:06.291Z,91.05
2023-02-16T22:19:37.016Z,94.29
2023-02-16T22:22:05.451Z,90.37
2023-02-16T22:24:41.908Z,92.83
2023-02-16T22:27:09.871Z,95.31
2023-02-16T22:29:38.364Z,94.27
2023-02-16T22:32:07.047Z,94.29
2023-02-16T22:34:37.020Z,94.88
2023-02-16T22:37:05.662Z,94.77
2023-02-16T22:39:32.913Z,90.88
2023-02-16T22:42:01.060Z,92.83
2023-02-16T22:44:29.081Z,93.38
2023-02-16T22:46:57.011Z,91.89
2023-02-16T22:49:31.462Z,92.07
2023-02-16T22:51:59.615Z,93.87
2023-02-16T22:54:27.246Z,95.76
2023-02-16T22:56:55.337Z,95.83
2023-02-16T22:59:23.537Z,94.52
2023-02-16T23:01:51.360Z,95.20
2023-02-16T23:04:19.009Z,95.04
2023-02-16T23:06:51.743Z,95.73
2023-02-16T23:09:21.472Z,96.82
2023-02-16T23:11:49.553Z,97.49
2023-02-16T23:14:17.871Z,97.42
2023-02-16T23:16:46.551Z,96.38
2023-02-16T23:19:15.260Z,94.71
2023-02-16T23:21:42.864Z,92.09
2023-02-16T23:24:16.779Z,93.32
2023-02-16T23:26:44.578Z,93.78
2023-02-16T23:29:12.279Z,93.93
2023-02-16T23:31:40.586Z,94.21
2023-02-16T23:34:07.837Z,94.37
2023-02-16T23:36:37.350Z,94.55
2023-02-16T23:39:07.672Z,93.05
2023-02-16T23:41:36.313Z,93.55
2023-02-16T23:44:04.715Z,97.06
2023-02-16T23:46:33.030Z,97.52
2023-02-16T23:49:00.860Z,97.61
2023-02-16T23:51:28.218Z,97.68
2023-02-16T23:53:55.736Z,98.82
2023-02-16T23:56:27.170Z,99.42
2023-02-16T23:58:57.464Z,99.31
